createdAt,value
2023-01-17T00:01:33.169Z,3.65
2023-01-17T00:04:18.386Z,5.13
2023-01-17T00:07:03.773Z,10.48
2023-01-17T00:09:49.078Z,5.78
2023-01-17T00:12:15.692Z,4.03
2023-01-17T00:14:42.345Z,9.30
2023-01-17T00:17:09.026Z,6.20
2023-01-17T00:19:54.072Z,4.65
2023-01-17T00:22:46.545Z,3.88
2023-01-17T00:25:39.688Z,4.95
2023-01-17T00:28:06.526Z,3.17
2023-01-17T00:30:33.532Z,2.80
2023-01-17T00:33:00.347Z,3.17
2023-01-17T00:35:28.875Z,4.50
2023-01-17T00:38:20.099Z,2.33
2023-01-17T00:40:47.962Z,3.97
2023-01-17T00:43:36.591Z,2.08
2023-01-17T00:46:22.524Z,2.67
2023-01-17T00:49:07.885Z,1.17
2023-01-17T00:51:54.328Z,1.90
2023-01-17T00:54:39.775Z,1.80
2023-01-17T00:57:26.116Z,0.73
2023-01-17T01:00:11.546Z,3.65
2023-01-17T01:02:57.960Z,1.42
2023-01-17T01:05:43.779Z,1.73
2023-01-17T01:08:43.457Z,0.40
2023-01-17T01:11:31.865Z,3.20
2023-01-17T01:14:18.891Z,2.53
2023-01-17T01:17:04.396Z,1.80
2023-01-17T01:19:49.711Z,2.25
2023-01-17T01:22:35.134Z,0.50
2023-01-17T01:25:20.412Z,0.40
2023-01-17T01:28:05.669Z,0.95
2023-01-17T01:30:50.955Z,0.22
2023-01-17T01:33:20.630Z,0.43
2023-01-17T01:35:52.434Z,1.15
2023-01-17T01:38:20.884Z,1.25
2023-01-17T01:40:50.997Z,1.90
2023-01-17T01:43:21.360Z,1.27
2023-01-17T01:45:54.755Z,2.13
2023-01-17T01:48:35.555Z,0.75
2023-01-17T01:51:09.677Z,0.82
2023-01-17T01:53:40.339Z,1.75
2023-01-17T01:56:10.748Z,0.52
2023-01-17T01:58:38.219Z,1.35
2023-01-17T02:01:08.163Z,1.00
2023-01-17T02:03:37.789Z,7.40
2023-01-17T02:06:27.068Z,1.90
2023-01-17T02:08:54.099Z,2.15
2023-01-17T02:11:22.234Z,1.27
2023-01-17T02:13:48.913Z,3.50
2023-01-17T02:16:38.933Z,1.88
2023-01-17T02:19:17.701Z,4.82
2023-01-17T02:21:54.251Z,0.85
2023-01-17T02:24:51.080Z,3.78
2023-01-17T02:27:39.763Z,1.25
2023-01-17T02:30:24.028Z,2.97
2023-01-17T02:33:13.871Z,4.53
2023-01-17T02:36:05.312Z,8.02
2023-01-17T02:38:37.113Z,5.05
2023-01-17T02:41:25.407Z,3.70
2023-01-17T02:43:53.724Z,6.20
2023-01-17T02:46:20.553Z,2.30
2023-01-17T02:48:47.906Z,2.92
2023-01-17T02:51:20.456Z,3.33
2023-01-17T02:53:47.005Z,3.03
2023-01-17T02:56:18.632Z,4.63
2023-01-17T02:59:11.585Z,2.65
2023-01-17T03:01:53.553Z,3.55
2023-01-17T03:05:09.642Z,2.80
2023-01-17T03:07:37.860Z,2.40
2023-01-17T03:10:06.278Z,5.70
2023-01-17T03:12:37.107Z,4.32
2023-01-17T03:15:04.262Z,4.22
2023-01-17T03:17:32.926Z,3.25
2023-01-17T03:19:59.610Z,3.63
2023-01-17T03:22:26.272Z,1.52
2023-01-17T03:24:52.947Z,4.45
2023-01-17T03:27:19.626Z,2.90
2023-01-17T03:29:46.276Z,5.75
2023-01-17T03:32:12.969Z,3.83
2023-01-17T03:34:39.599Z,3.45
2023-01-17T03:37:06.211Z,2.85
2023-01-17T03:39:32.788Z,6.32
2023-01-17T03:41:59.409Z,4.93
2023-01-17T03:44:25.985Z,4.15
2023-01-17T03:46:52.577Z,2.25
2023-01-17T03:49:19.151Z,4.95
2023-01-17T03:51:45.727Z,2.90
2023-01-17T03:54:12.312Z,3.80
2023-01-17T03:56:38.897Z,6.53
2023-01-17T03:59:05.524Z,3.40
2023-01-17T04:01:32.302Z,3.53
2023-01-17T04:03:59.044Z,7.28
2023-01-17T04:06:25.676Z,7.82
2023-01-17T04:08:53.056Z,7.07
2023-01-17T04:11:19.704Z,4.45
2023-01-17T04:13:46.344Z,5.03
2023-01-17T04:16:15.283Z,4.38
2023-01-17T04:18:42.033Z,3.22
2023-01-17T04:21:11.751Z,2.45
2023-01-17T04:23:38.505Z,5.70
2023-01-17T04:26:05.340Z,6.45
2023-01-17T04:28:32.048Z,6.25
2023-01-17T04:31:00.125Z,2.85
2023-01-17T04:33:26.868Z,5.07
2023-01-17T04:35:54.323Z,5.10
2023-01-17T04:38:21.777Z,5.90
2023-01-17T04:40:48.668Z,1.38
2023-01-17T04:43:18.653Z,7.22
2023-01-17T04:45:45.271Z,5.07
2023-01-17T04:48:12.839Z,3.63
2023-01-17T04:50:40.016Z,1.77
2023-01-17T04:53:06.722Z,4.80
2023-01-17T04:55:33.417Z,2.60
2023-01-17T04:58:00.139Z,3.28
2023-01-17T05:00:26.790Z,5.57
2023-01-17T05:02:53.620Z,6.25
2023-01-17T05:05:20.304Z,6.18
2023-01-17T05:07:56.670Z,4.32
2023-01-17T05:10:24.120Z,5.38
2023-01-17T05:12:58.184Z,4.15
2023-01-17T05:15:26.227Z,7.05
2023-01-17T05:17:53.826Z,4.00
2023-01-17T05:20:22.639Z,2.50
2023-01-17T05:22:56.733Z,4.88
2023-01-17T05:25:29.544Z,5.40
2023-01-17T05:27:56.619Z,1.70
2023-01-17T05:30:23.487Z,3.03
2023-01-17T05:32:51.936Z,3.95
2023-01-17T05:35:20.442Z,7.30
2023-01-17T05:37:49.237Z,5.38
2023-01-17T05:40:21.112Z,1.70
2023-01-17T05:42:49.604Z,4.10
2023-01-17T05:45:19.534Z,2.75
2023-01-17T05:47:47.912Z,3.15
2023-01-17T05:50:17.040Z,3.33
2023-01-17T05:52:49.929Z,4.90
2023-01-17T05:55:16.722Z,3.95
2023-01-17T05:57:43.319Z,3.65
2023-01-17T06:00:10.512Z,1.88
2023-01-17T06:02:37.158Z,6.10
2023-01-17T06:05:04.122Z,4.68
2023-01-17T06:07:31.042Z,5.68
2023-01-17T06:09:57.686Z,3.80
2023-01-17T06:12:24.327Z,3.08
2023-01-17T06:14:50.984Z,4.95
2023-01-17T06:17:17.556Z,3.47
2023-01-17T06:19:45.429Z,2.67
2023-01-17T06:22:12.124Z,4.03
2023-01-17T06:24:38.742Z,1.77
2023-01-17T06:27:05.352Z,5.90
2023-01-17T06:29:31.930Z,2.40
2023-01-17T06:32:01.461Z,8.02
2023-01-17T06:34:28.535Z,8.57
2023-01-17T06:36:55.255Z,4.55
2023-01-17T06:39:21.891Z,5.13
2023-01-17T06:41:48.463Z,6.00
2023-01-17T06:44:15.147Z,4.93
2023-01-17T06:46:41.863Z,4.57
2023-01-17T06:49:08.554Z,4.55
2023-01-17T06:51:35.152Z,4.22
2023-01-17T06:54:01.794Z,2.38
2023-01-17T06:56:33.487Z,4.82
2023-01-17T06:59:00.117Z,4.03
2023-01-17T07:01:26.911Z,5.57
2023-01-17T07:03:53.784Z,4.53
2023-01-17T07:06:20.913Z,5.30
2023-01-17T07:08:47.531Z,6.50
2023-01-17T07:11:14.224Z,5.03
2023-01-17T07:13:41.298Z,4.07
2023-01-17T07:16:08.882Z,6.35
2023-01-17T07:18:35.668Z,4.90
2023-01-17T07:21:02.333Z,8.20
2023-01-17T07:23:28.946Z,4.35
2023-01-17T07:25:57.506Z,5.05
2023-01-17T07:28:25.104Z,5.05
2023-01-17T07:30:52.169Z,4.35
2023-01-17T07:33:19.355Z,11.63
2023-01-17T07:35:46.603Z,4.97
2023-01-17T07:38:18.399Z,4.22
2023-01-17T07:40:46.072Z,5.68
2023-01-17T07:43:16.636Z,4.80
2023-01-17T07:45:51.465Z,7.88
2023-01-17T07:48:19.413Z,6.80
2023-01-17T07:50:54.175Z,5.07
2023-01-17T07:53:22.584Z,3.28
2023-01-17T07:55:49.168Z,6.80
2023-01-17T07:58:15.937Z,5.85
2023-01-17T08:00:44.693Z,4.07
2023-01-17T08:03:17.479Z,4.75
2023-01-17T08:05:52.933Z,6.90
2023-01-17T08:08:19.863Z,6.60
2023-01-17T08:10:47.028Z,4.13
2023-01-17T08:13:13.616Z,3.38
2023-01-17T08:15:40.201Z,5.25
2023-01-17T08:18:06.819Z,6.43
2023-01-17T08:20:33.455Z,6.90
2023-01-17T08:23:00.112Z,7.20
2023-01-17T08:25:27.541Z,5.43
2023-01-17T08:27:57.970Z,2.58
2023-01-17T08:30:26.092Z,7.28
2023-01-17T08:32:53.484Z,4.90
2023-01-17T08:35:20.548Z,4.65
2023-01-17T08:37:48.257Z,4.78
2023-01-17T08:40:18.002Z,3.55
2023-01-17T08:42:44.591Z,3.63
2023-01-17T08:45:12.073Z,8.98
2023-01-17T08:47:38.836Z,5.93
2023-01-17T08:50:06.819Z,9.32
2023-01-17T08:52:33.851Z,7.13
2023-01-17T08:55:00.563Z,10.20
2023-01-17T08:57:27.423Z,6.63
2023-01-17T08:59:54.061Z,6.85
2023-01-17T09:02:20.761Z,7.82
2023-01-17T09:04:49.141Z,26.88
2023-01-17T09:07:17.709Z,36.72
2023-01-17T09:09:44.621Z,26.33
2023-01-17T09:12:11.328Z,13.30
2023-01-17T09:14:38.330Z,6.43
2023-01-17T09:17:06.927Z,4.43
2023-01-17T09:19:33.711Z,8.60
2023-01-17T09:22:00.362Z,4.85
2023-01-17T09:24:26.956Z,3.83
2023-01-17T09:26:53.592Z,4.13
2023-01-17T09:29:20.275Z,5.18
2023-01-17T09:31:48.012Z,7.68
2023-01-17T09:34:14.811Z,5.18
2023-01-17T09:36:42.141Z,2.30
2023-01-17T09:39:10.926Z,1.98
2023-01-17T09:41:59.431Z,3.45
2023-01-17T09:44:29.622Z,6.47
2023-01-17T09:47:02.878Z,4.25
2023-01-17T09:49:45.089Z,3.88
2023-01-17T09:54:51.052Z,7.30
2023-01-17T09:57:26.725Z,5.78
2023-01-17T10:00:12.348Z,3.70
2023-01-17T10:03:14.308Z,6.65
2023-01-17T10:06:08.372Z,4.55
2023-01-17T10:09:03.781Z,5.25
2023-01-17T10:11:45.981Z,4.90
2023-01-17T10:14:43.796Z,4.45
2023-01-17T10:17:22.462Z,2.35
2023-01-17T10:20:04.917Z,3.03
2023-01-17T10:23:12.545Z,2.30
2023-01-17T10:25:49.396Z,3.80
2023-01-17T10:28:36.286Z,3.38
2023-01-17T10:31:14.020Z,3.67
2023-01-17T10:33:54.921Z,4.50
2023-01-17T10:36:27.335Z,4.30
2023-01-17T10:38:57.716Z,4.30
2023-01-17T10:41:30.326Z,5.10
2023-01-17T10:44:12.009Z,4.80
2023-01-17T10:46:45.026Z,5.60
2023-01-17T10:49:18.521Z,5.97
2023-01-17T10:52:04.725Z,3.63
2023-01-17T10:54:31.337Z,4.85
2023-01-17T10:56:58.759Z,4.85
2023-01-17T10:59:34.884Z,3.40
2023-01-17T11:02:07.365Z,5.63
2023-01-17T11:04:37.563Z,4.32
2023-01-17T11:07:10.024Z,6.25
2023-01-17T11:09:42.198Z,5.55
2023-01-17T11:12:28.029Z,3.63
2023-01-17T11:15:00.675Z,7.35
2023-01-17T11:17:28.619Z,4.05
2023-01-17T11:20:17.179Z,5.22
2023-01-17T11:23:04.528Z,2.92
2023-01-17T11:25:35.525Z,5.78
2023-01-17T11:28:30.459Z,5.17
2023-01-17T11:31:09.290Z,5.10
2023-01-17T11:34:18.626Z,6.43
2023-01-17T11:36:45.305Z,3.67
2023-01-17T11:39:17.895Z,7.22
2023-01-17T11:41:47.623Z,5.70
2023-01-17T11:44:32.356Z,3.55
2023-01-17T11:47:13.769Z,5.72
2023-01-17T11:49:42.751Z,4.45
2023-01-17T11:52:23.279Z,4.55
2023-01-17T11:54:52.909Z,5.57
2023-01-17T11:57:34.688Z,6.22
2023-01-17T12:00:47.328Z,10.65
2023-01-17T12:03:34.067Z,6.15
2023-01-17T12:06:12.091Z,6.22
2023-01-17T12:08:56.618Z,3.45
2023-01-17T12:11:32.232Z,4.07
2023-01-17T12:14:22.631Z,6.82
2023-01-17T12:16:49.194Z,3.75
2023-01-17T12:19:21.781Z,4.75
2023-01-17T12:21:52.735Z,4.03
2023-01-17T12:24:29.397Z,3.80
2023-01-17T12:27:07.515Z,3.97
2023-01-17T12:29:52.121Z,4.65
2023-01-17T12:32:35.009Z,4.95
2023-01-17T12:35:13.460Z,3.63
2023-01-17T12:37:43.929Z,6.35
2023-01-17T12:40:13.266Z,3.00
2023-01-17T12:42:43.832Z,6.95
2023-01-17T12:45:38.370Z,4.68
2023-01-17T12:48:26.839Z,1.55
2023-01-17T12:51:14.442Z,3.90
2023-01-17T12:53:52.064Z,2.97
2023-01-17T12:56:41.006Z,2.83
2023-01-17T12:59:29.037Z,3.72
2023-01-17T13:01:57.870Z,2.67
2023-01-17T13:04:27.085Z,3.80
2023-01-17T13:06:59.990Z,5.38
2023-01-17T13:09:37.897Z,2.70
2023-01-17T13:12:12.873Z,2.85
2023-01-17T13:14:39.775Z,4.43
2023-01-17T13:17:27.772Z,2.67
2023-01-17T13:20:14.168Z,2.70
2023-01-17T13:22:42.116Z,4.80
2023-01-17T13:25:29.711Z,2.50
2023-01-17T13:28:25.660Z,2.58
2023-01-17T13:31:32.431Z,1.77
2023-01-17T13:34:05.288Z,2.92
2023-01-17T13:36:37.825Z,3.83
2023-01-17T13:39:35.334Z,5.15
2023-01-17T13:42:08.973Z,3.35
2023-01-17T13:44:37.421Z,2.75
2023-01-17T13:47:27.453Z,4.63
2023-01-17T13:49:56.518Z,4.32
2023-01-17T13:52:26.251Z,5.63
2023-01-17T13:54:55.625Z,2.17
2023-01-17T13:57:39.945Z,4.68
2023-01-17T14:00:15.646Z,2.83
2023-01-17T14:02:43.397Z,4.63
2023-01-17T14:05:21.264Z,5.50
2023-01-17T14:07:49.551Z,5.20
2023-01-17T14:10:24.652Z,3.45
2023-01-17T14:12:51.313Z,2.25
2023-01-17T14:15:22.315Z,4.18
2023-01-17T14:17:55.843Z,3.17
2023-01-17T14:20:36.860Z,3.05
2023-01-17T14:23:25.770Z,6.10
2023-01-17T14:25:53.308Z,4.10
2023-01-17T14:28:26.028Z,5.78
2023-01-17T14:30:56.002Z,5.10
2023-01-17T14:33:35.910Z,4.07
2023-01-17T14:36:06.209Z,5.35
2023-01-17T14:38:34.642Z,3.17
2023-01-17T14:41:08.273Z,3.63
2023-01-17T14:43:38.545Z,3.10
2023-01-17T14:46:27.342Z,3.60
2023-01-17T14:49:02.701Z,4.50
2023-01-17T14:51:29.632Z,2.75
2023-01-17T14:54:02.267Z,3.30
2023-01-17T14:56:30.830Z,3.72
2023-01-17T14:59:32.638Z,2.55
2023-01-17T15:02:07.523Z,2.25
2023-01-17T15:04:39.051Z,3.95
2023-01-17T15:07:05.962Z,3.00
2023-01-17T15:09:36.529Z,1.90
2023-01-17T15:12:04.026Z,5.20
2023-01-17T15:14:37.004Z,2.08
2023-01-17T15:17:24.807Z,3.25
2023-01-17T15:19:56.838Z,2.38
2023-01-17T15:24:53.207Z,1.05
2023-01-17T15:27:20.210Z,2.90
2023-01-17T15:29:47.397Z,3.22
2023-01-17T15:32:27.948Z,3.08
2023-01-17T15:34:54.774Z,8.68
2023-01-17T15:37:30.917Z,3.45
2023-01-17T15:40:18.596Z,5.00
2023-01-17T15:42:57.933Z,2.03
2023-01-17T15:45:30.862Z,1.73
2023-01-17T15:47:59.190Z,3.30
2023-01-17T15:50:31.591Z,1.83
2023-01-17T15:53:01.294Z,8.32
2023-01-17T15:55:38.504Z,3.95
2023-01-17T15:58:22.378Z,3.08
2023-01-17T16:00:49.294Z,3.88
2023-01-17T16:03:26.132Z,3.83
2023-01-17T16:05:54.185Z,4.43
2023-01-17T16:08:38.773Z,2.92
2023-01-17T16:11:07.090Z,2.65
2023-01-17T16:13:38.766Z,3.33
2023-01-17T16:16:14.257Z,2.53
2023-01-17T16:18:41.584Z,5.07
2023-01-17T16:21:29.000Z,4.53
2023-01-17T16:23:56.286Z,4.07
2023-01-17T16:26:23.581Z,2.10
2023-01-17T16:28:51.111Z,3.13
2023-01-17T16:31:18.293Z,2.20
2023-01-17T16:33:48.225Z,3.97
2023-01-17T16:36:16.341Z,4.05
2023-01-17T16:38:44.601Z,3.75
2023-01-17T16:41:11.351Z,3.92
2023-01-17T16:43:37.983Z,3.00
2023-01-17T16:46:04.849Z,3.67
2023-01-17T16:48:32.154Z,3.85
2023-01-17T16:50:59.315Z,2.95
2023-01-17T16:53:28.152Z,1.45
2023-01-17T16:55:57.929Z,3.40
2023-01-17T16:58:24.983Z,4.22
2023-01-17T17:00:51.882Z,5.38
2023-01-17T17:03:20.818Z,4.07
2023-01-17T17:05:59.121Z,5.53
2023-01-17T17:08:26.167Z,7.35
2023-01-17T17:10:52.886Z,4.95
2023-01-17T17:13:19.728Z,6.45
2023-01-17T17:15:46.721Z,8.52
2023-01-17T17:18:17.728Z,7.85
2023-01-17T17:20:45.105Z,13.35
2023-01-17T17:23:12.277Z,22.15
2023-01-17T17:25:39.275Z,22.98
2023-01-17T17:28:06.548Z,19.33
2023-01-17T17:30:33.457Z,23.80
2023-01-17T17:33:00.220Z,17.60
2023-01-17T17:35:26.867Z,6.03
2023-01-17T17:37:54.097Z,6.70
2023-01-17T17:40:20.917Z,4.25
2023-01-17T17:42:47.535Z,3.45
2023-01-17T17:45:14.192Z,3.92
2023-01-17T17:47:40.896Z,8.13
2023-01-17T17:50:08.293Z,6.72
2023-01-17T17:52:34.968Z,8.43
2023-01-17T17:55:01.627Z,17.65
2023-01-17T17:57:28.255Z,10.82
2023-01-17T17:59:56.741Z,11.00
2023-01-17T18:02:23.417Z,8.63
2023-01-17T18:04:50.152Z,8.95
2023-01-17T18:07:16.981Z,15.63
2023-01-17T18:09:43.682Z,13.23
2023-01-17T18:12:10.332Z,9.52
2023-01-17T18:14:37.109Z,9.75
2023-01-17T18:17:03.863Z,11.40
2023-01-17T18:19:30.494Z,7.82
2023-01-17T18:21:58.090Z,6.68
2023-01-17T18:24:25.528Z,5.47
2023-01-17T18:26:57.520Z,5.53
2023-01-17T18:31:52.960Z,4.63
2023-01-17T18:34:26.933Z,6.97
2023-01-17T18:36:53.903Z,11.32
2023-01-17T18:39:24.362Z,12.10
2023-01-17T18:41:51.751Z,12.10
2023-01-17T18:44:21.997Z,7.93
2023-01-17T18:46:50.201Z,10.93
2023-01-17T18:49:19.119Z,6.75
2023-01-17T18:51:50.178Z,5.82
2023-01-17T18:54:18.283Z,5.20
2023-01-17T18:56:44.948Z,9.23
2023-01-17T18:59:13.126Z,10.32
2023-01-17T19:01:43.584Z,13.95
2023-01-17T19:04:11.836Z,16.60
2023-01-17T19:06:41.455Z,12.23
2023-01-17T19:09:10.347Z,14.07
2023-01-17T19:11:37.153Z,13.38
2023-01-17T19:14:04.479Z,11.02
2023-01-17T19:16:34.950Z,11.52
2023-01-17T19:19:04.408Z,13.13
2023-01-17T19:21:31.373Z,13.15
2023-01-17T19:23:58.726Z,13.48
2023-01-17T19:26:27.377Z,11.38
2023-01-17T19:28:56.132Z,13.38
2023-01-17T19:31:25.125Z,10.57
2023-01-17T19:33:55.928Z,9.90
2023-01-17T19:36:31.249Z,12.80
2023-01-17T19:39:06.305Z,15.32
2023-01-17T19:41:40.260Z,12.38
2023-01-17T19:44:09.032Z,12.90
2023-01-17T19:46:36.705Z,13.52
2023-01-17T19:49:05.208Z,14.82
2023-01-17T19:51:31.834Z,13.32
2023-01-17T19:54:01.025Z,14.25
2023-01-17T19:56:28.688Z,14.25
2023-01-17T19:58:56.990Z,14.05
2023-01-17T20:01:27.936Z,13.07
2023-01-17T20:03:57.452Z,11.02
2023-01-17T20:06:27.125Z,14.27
2023-01-17T20:08:53.733Z,13.23
2023-01-17T20:11:23.030Z,8.95
2023-01-17T20:13:54.026Z,11.90
2023-01-17T20:16:21.738Z,12.55
2023-01-17T20:18:49.005Z,11.15
2023-01-17T20:21:21.781Z,9.65
2023-01-17T20:23:50.174Z,9.18
2023-01-17T20:26:23.275Z,10.25
2023-01-17T20:28:51.680Z,13.05
2023-01-17T20:31:21.657Z,11.88
2023-01-17T20:33:50.410Z,11.40
2023-01-17T20:36:18.559Z,9.18
2023-01-17T20:38:45.421Z,8.35
2023-01-17T20:41:28.943Z,10.70
2023-01-17T20:43:58.047Z,9.50
2023-01-17T20:46:31.738Z,10.43
2023-01-17T20:49:00.490Z,10.93
2023-01-17T20:51:30.235Z,9.98
2023-01-17T20:53:59.646Z,10.48
2023-01-17T20:56:26.969Z,11.30
2023-01-17T20:58:56.676Z,11.70
2023-01-17T21:01:23.500Z,9.50
2023-01-17T21:03:53.101Z,7.93
2023-01-17T21:06:21.627Z,12.27
2023-01-17T21:08:48.666Z,13.05
2023-01-17T21:11:18.656Z,7.18
2023-01-17T21:13:45.734Z,14.20
2023-01-17T21:16:14.099Z,10.40
2023-01-17T21:18:40.912Z,9.15
2023-01-17T21:21:21.713Z,10.75
2023-01-17T21:23:49.845Z,11.70
2023-01-17T21:26:18.052Z,11.25
2023-01-17T21:28:46.789Z,10.15
2023-01-17T21:31:25.737Z,10.23
2023-01-17T21:34:13.757Z,9.30
2023-01-17T21:36:41.667Z,10.77
2023-01-17T21:39:12.127Z,10.60
2023-01-17T21:41:41.133Z,11.63
2023-01-17T21:44:12.819Z,11.02
2023-01-17T21:46:40.811Z,13.30
2023-01-17T21:49:11.692Z,12.55
2023-01-17T21:52:05.569Z,11.90
2023-01-17T21:54:51.070Z,12.30
2023-01-17T21:57:39.537Z,10.18
2023-01-17T22:00:09.024Z,10.20
2023-01-17T22:02:35.711Z,9.85
2023-01-17T22:05:02.335Z,9.15
2023-01-17T22:07:29.106Z,15.48
2023-01-17T22:09:56.821Z,10.93
2023-01-17T22:12:23.798Z,10.98
2023-01-17T22:14:50.447Z,11.52
2023-01-17T22:17:17.036Z,10.82
2023-01-17T22:19:45.826Z,44.25
2023-01-17T22:22:12.648Z,10.48
2023-01-17T22:24:40.483Z,9.57
2023-01-17T22:27:10.479Z,10.45
2023-01-17T22:29:37.643Z,14.68
2023-01-17T22:32:04.624Z,9.30
2023-01-17T22:34:31.242Z,8.68
2023-01-17T22:36:57.854Z,9.63
2023-01-17T22:39:24.478Z,11.05
2023-01-17T22:41:51.128Z,10.00
2023-01-17T22:44:17.881Z,8.27
2023-01-17T22:46:44.661Z,12.38
2023-01-17T22:49:13.339Z,8.80
2023-01-17T22:51:39.943Z,11.02
2023-01-17T22:54:06.588Z,11.60
2023-01-17T22:56:33.748Z,9.13
2023-01-17T22:59:00.983Z,12.07
2023-01-17T23:01:32.798Z,10.93
2023-01-17T23:04:04.147Z,8.48
2023-01-17T23:06:33.122Z,14.07
2023-01-17T23:09:02.431Z,9.40
2023-01-17T23:11:39.021Z,9.00
2023-01-17T23:14:11.893Z,8.95
2023-01-17T23:16:59.183Z,10.23
2023-01-17T23:19:28.785Z,9.75
2023-01-17T23:22:17.206Z,11.32
2023-01-17T23:24:52.674Z,9.18
2023-01-17T23:28:02.395Z,8.93
2023-01-17T23:30:39.242Z,12.23
2023-01-17T23:33:07.197Z,9.35
2023-01-17T23:35:41.248Z,10.65
2023-01-17T23:38:30.728Z,9.00
2023-01-17T23:41:26.962Z,9.48
2023-01-17T23:43:55.590Z,10.50
2023-01-17T23:46:24.398Z,10.73
2023-01-17T23:48:51.306Z,8.88
2023-01-17T23:51:18.401Z,14.13
2023-01-17T23:53:45.090Z,13.00
2023-01-17T23:56:20.679Z,8.65
2023-01-17T23:58:47.610Z,11.85
